sensor_id;sensor_type;location;lat;lon;timestamp;P1;durP1;ratioP1;P2;durP2;ratioP2
34767;SDS011;21755;43.608;1.236;2024-03-23T00:55:56;13.00;;;5.93;;
34767;SDS011;21755;43.608;1.236;2024-03-23T00:58:22;12.50;;;6.45;;
34767;SDS011;21755;43.608;1.236;2024-03-23T01:00:48;12.05;;;5.75;;
34767;SDS011;21755;43.608;1.236;2024-03-23T01:03:13;12.93;;;6.43;;
34767;SDS011;21755;43.608;1.236;2024-03-23T01:05:39;16.50;;;7.40;;
34767;SDS011;21755;43.608;1.236;2024-03-23T01:08:05;9.43;;;6.13;;
34767;SDS011;21755;43.608;1.236;2024-03-23T01:10:31;15.80;;;7.55;;
34767;SDS011;21755;43.608;1.236;2024-03-23T01:12:57;11.65;;;6.65;;
34767;SDS011;21755;43.608;1.236;2024-03-23T01:15:23;17.92;;;6.68;;
34767;SDS011;21755;43.608;1.236;2024-03-23T01:17:49;10.73;;;6.72;;
34767;SDS011;21755;43.608;1.236;2024-03-23T01:20:15;12.15;;;7.45;;
34767;SDS011;21755;43.608;1.236;2024-03-23T01:22:41;11.60;;;6.95;;
34767;SDS011;21755;43.608;1.236;2024-03-23T01:25:07;12.35;;;6.53;;
34767;SDS011;21755;43.608;1.236;2024-03-23T01:27:33;10.70;;;7.43;;
34767;SDS011;21755;43.608;1.236;2024-03-23T01:29:59;9.05;;;6.15;;
34767;SDS011;21755;43.608;1.236;2024-03-23T01:32:25;18.65;;;6.53;;
34767;SDS011;21755;43.608;1.236;2024-03-23T01:34:51;9.25;;;6.47;;
34767;SDS011;21755;43.608;1.236;2024-03-23T01:37:17;13.50;;;7.00;;
34767;SDS011;21755;43.608;1.236;2024-03-23T01:39:43;12.10;;;6.75;;
34767;SDS011;21755;43.608;1.236;2024-03-23T01:42:08;10.60;;;7.00;;
34767;SDS011;21755;43.608;1.236;2024-03-23T01:44:34;15.00;;;6.68;;
34767;SDS011;21755;43.608;1.236;2024-03-23T01:47:00;8.80;;;6.57;;
34767;SDS011;21755;43.608;1.236;2024-03-23T01:49:26;10.57;;;6.30;;
34767;SDS011;21755;43.608;1.236;2024-03-23T01:51:52;12.15;;;5.63;;
34767;SDS011;21755;43.608;1.236;2024-03-23T01:54:18;13.45;;;5.72;;
34767;SDS011;21755;43.608;1.236;2024-03-23T01:56:44;10.75;;;6.00;;
34767;SDS011;21755;43.608;1.236;2024-03-23T01:59:10;9.95;;;5.45;;
34767;SDS011;21755;43.608;1.236;2024-03-23T02:01:36;19.95;;;5.32;;
34767;SDS011;21755;43.608;1.236;2024-03-23T02:04:02;9.10;;;4.97;;
34767;SDS011;21755;43.608;1.236;2024-03-23T02:06:28;9.40;;;4.75;;
34767;SDS011;21755;43.608;1.236;2024-03-23T02:08:54;12.52;;;5.25;;
34767;SDS011;21755;43.608;1.236;2024-03-23T02:11:21;7.47;;;4.60;;
34767;SDS011;21755;43.608;1.236;2024-03-23T02:13:47;10.57;;;4.75;;
34767;SDS011;21755;43.608;1.236;2024-03-23T02:16:13;7.70;;;4.35;;
34767;SDS011;21755;43.608;1.236;2024-03-23T02:18:39;7.00;;;3.88;;
34767;SDS011;21755;43.608;1.236;2024-03-23T02:21:05;9.18;;;4.30;;
34767;SDS011;21755;43.608;1.236;2024-03-23T02:23:30;6.35;;;4.00;;
34767;SDS011;21755;43.608;1.236;2024-03-23T02:25:56;7.38;;;4.55;;
34767;SDS011;21755;43.608;1.236;2024-03-23T02:28:22;7.18;;;3.90;;
34767;SDS011;21755;43.608;1.236;2024-03-23T02:30:49;9.20;;;4.30;;
34767;SDS011;21755;43.608;1.236;2024-03-23T02:33:15;11.85;;;4.07;;
34767;SDS011;21755;43.608;1.236;2024-03-23T02:35:41;10.88;;;4.05;;
34767;SDS011;21755;43.608;1.236;2024-03-23T02:38:08;7.47;;;3.88;;
34767;SDS011;21755;43.608;1.236;2024-03-23T02:40:34;8.30;;;4.07;;
34767;SDS011;21755;43.608;1.236;2024-03-23T02:43:02;7.78;;;3.30;;
34767;SDS011;21755;43.608;1.236;2024-03-23T02:45:28;5.82;;;3.28;;
34767;SDS011;21755;43.608;1.236;2024-03-23T02:47:54;10.93;;;3.80;;
34767;SDS011;21755;43.608;1.236;2024-03-23T02:50:20;9.52;;;3.25;;
34767;SDS011;21755;43.608;1.236;2024-03-23T02:52:47;6.07;;;2.80;;
34767;SDS011;21755;43.608;1.236;2024-03-23T02:55:13;5.35;;;3.03;;
34767;SDS011;21755;43.608;1.236;2024-03-23T02:57:39;8.02;;;3.05;;
34767;SDS011;21755;43.608;1.236;2024-03-23T03:00:05;8.32;;;3.30;;
34767;SDS011;21755;43.608;1.236;2024-03-23T03:02:32;22.33;;;3.70;;
34767;SDS011;21755;43.608;1.236;2024-03-23T03:04:58;5.22;;;2.83;;
34767;SDS011;21755;43.608;1.236;2024-03-23T03:07:24;8.63;;;3.13;;
34767;SDS011;21755;43.608;1.236;2024-03-23T03:09:50;8.35;;;3.53;;
34767;SDS011;21755;43.608;1.236;2024-03-23T03:12:16;6.93;;;2.83;;
34767;SDS011;21755;43.608;1.236;2024-03-23T03:14:42;6.70;;;2.85;;
34767;SDS011;21755;43.608;1.236;2024-03-23T03:17:08;7.80;;;3.00;;
34767;SDS011;21755;43.608;1.236;2024-03-23T03:19:34;7.55;;;2.63;;
34767;SDS011;21755;43.608;1.236;2024-03-23T03:22:00;4.10;;;2.60;;
34767;SDS011;21755;43.608;1.236;2024-03-23T03:24:26;7.72;;;2.90;;
34767;SDS011;21755;43.608;1.236;2024-03-23T03:26:52;6.72;;;2.72;;
34767;SDS011;21755;43.608;1.236;2024-03-23T03:29:18;6.25;;;2.10;;
34767;SDS011;21755;43.608;1.236;2024-03-23T03:31:43;9.07;;;2.65;;
34767;SDS011;21755;43.608;1.236;2024-03-23T03:34:09;7.18;;;2.75;;
34767;SDS011;21755;43.608;1.236;2024-03-23T03:36:35;7.93;;;2.53;;
34767;SDS011;21755;43.608;1.236;2024-03-23T03:39:01;10.73;;;3.03;;
34767;SDS011;21755;43.608;1.236;2024-03-23T03:41:31;4.68;;;2.60;;
34767;SDS011;21755;43.608;1.236;2024-03-23T03:43:57;4.88;;;2.20;;
34767;SDS011;21755;43.608;1.236;2024-03-23T03:46:27;6.38;;;2.25;;
34767;SDS011;21755;43.608;1.236;2024-03-23T03:48:54;5.57;;;2.20;;
34767;SDS011;21755;43.608;1.236;2024-03-23T03:51:20;7.45;;;2.55;;
34767;SDS011;21755;43.608;1.236;2024-03-23T03:53:46;3.85;;;2.38;;
34767;SDS011;21755;43.608;1.236;2024-03-23T03:56:12;9.68;;;2.45;;
34767;SDS011;21755;43.608;1.236;2024-03-23T03:58:38;7.40;;;2.42;;
34767;SDS011;21755;43.608;1.236;2024-03-23T04:01:05;8.73;;;2.40;;
34767;SDS011;21755;43.608;1.236;2024-03-23T04:03:30;12.90;;;2.83;;
34767;SDS011;21755;43.608;1.236;2024-03-23T04:05:56;8.85;;;2.85;;
34767;SDS011;21755;43.608;1.236;2024-03-23T04:08:22;4.65;;;2.30;;
34767;SDS011;21755;43.608;1.236;2024-03-23T04:10:49;4.35;;;1.92;;
34767;SDS011;21755;43.608;1.236;2024-03-23T04:13:14;4.90;;;2.45;;
34767;SDS011;21755;43.608;1.236;2024-03-23T04:15:41;8.18;;;2.28;;
34767;SDS011;21755;43.608;1.236;2024-03-23T04:18:07;7.47;;;2.35;;
34767;SDS011;21755;43.608;1.236;2024-03-23T04:20:34;9.38;;;2.42;;
34767;SDS011;21755;43.608;1.236;2024-03-23T04:23:00;9.23;;;1.95;;
34767;SDS011;21755;43.608;1.236;2024-03-23T04:25:26;8.63;;;2.00;;
34767;SDS011;21755;43.608;1.236;2024-03-23T04:27:52;7.38;;;2.35;;
34767;SDS011;21755;43.608;1.236;2024-03-23T04:30:18;6.75;;;2.08;;
34767;SDS011;21755;43.608;1.236;2024-03-23T04:32:44;7.47;;;2.40;;
34767;SDS011;21755;43.608;1.236;2024-03-23T04:35:10;11.10;;;2.72;;
34767;SDS011;21755;43.608;1.236;2024-03-23T04:37:39;6.25;;;2.17;;
34767;SDS011;21755;43.608;1.236;2024-03-23T04:40:08;5.75;;;1.90;;
34767;SDS011;21755;43.608;1.236;2024-03-23T04:42:34;3.65;;;1.90;;
34767;SDS011;21755;43.608;1.236;2024-03-23T04:45:00;3.92;;;1.95;;
34767;SDS011;21755;43.608;1.236;2024-03-23T04:47:26;5.40;;;2.30;;
34767;SDS011;21755;43.608;1.236;2024-03-23T04:49:52;5.72;;;2.30;;
34767;SDS011;21755;43.608;1.236;2024-03-23T04:52:18;4.65;;;2.05;;
34767;SDS011;21755;43.608;1.236;2024-03-23T04:54:44;8.80;;;2.55;;
34767;SDS011;21755;43.608;1.236;2024-03-23T04:57:10;8.43;;;2.10;;
34767;SDS011;21755;43.608;1.236;2024-03-23T04:59:36;7.90;;;2.35;;
34767;SDS011;21755;43.608;1.236;2024-03-23T05:02:02;7.25;;;2.00;;
34767;SDS011;21755;43.608;1.236;2024-03-23T05:04:28;7.72;;;1.92;;
34767;SDS011;21755;43.608;1.236;2024-03-23T05:06:54;6.57;;;2.20;;
34767;SDS011;21755;43.608;1.236;2024-03-23T05:09:20;4.45;;;1.55;;
34767;SDS011;21755;43.608;1.236;2024-03-23T05:11:47;10.60;;;2.10;;
34767;SDS011;21755;43.608;1.236;2024-03-23T05:14:13;6.40;;;2.22;;
34767;SDS011;21755;43.608;1.236;2024-03-23T05:16:39;10.27;;;2.58;;
34767;SDS011;21755;43.608;1.236;2024-03-23T05:19:05;5.47;;;2.30;;
34767;SDS011;21755;43.608;1.236;2024-03-23T05:21:32;8.80;;;2.45;;
34767;SDS011;21755;43.608;1.236;2024-03-23T05:23:57;8.85;;;2.30;;
34767;SDS011;21755;43.608;1.236;2024-03-23T05:26:23;5.70;;;2.00;;
34767;SDS011;21755;43.608;1.236;2024-03-23T05:28:49;5.72;;;1.77;;
34767;SDS011;21755;43.608;1.236;2024-03-23T05:31:25;8.63;;;2.38;;
34767;SDS011;21755;43.608;1.236;2024-03-23T05:33:52;7.00;;;1.98;;
34767;SDS011;21755;43.608;1.236;2024-03-23T05:36:18;7.80;;;2.15;;
34767;SDS011;21755;43.608;1.236;2024-03-23T05:38:44;8.07;;;2.88;;
34767;SDS011;21755;43.608;1.236;2024-03-23T05:41:10;4.55;;;1.80;;
34767;SDS011;21755;43.608;1.236;2024-03-23T05:43:36;5.30;;;2.00;;
34767;SDS011;21755;43.608;1.236;2024-03-23T05:46:02;6.25;;;1.95;;
34767;SDS011;21755;43.608;1.236;2024-03-23T05:48:29;6.43;;;1.85;;
34767;SDS011;21755;43.608;1.236;2024-03-23T05:50:56;4.25;;;1.95;;
34767;SDS011;21755;43.608;1.236;2024-03-23T05:53:22;6.22;;;1.85;;
34767;SDS011;21755;43.608;1.236;2024-03-23T05:55:48;5.68;;;1.95;;
34767;SDS011;21755;43.608;1.236;2024-03-23T05:58:16;4.00;;;1.63;;
34767;SDS011;21755;43.608;1.236;2024-03-23T06:00:43;7.40;;;2.15;;
34767;SDS011;21755;43.608;1.236;2024-03-23T06:03:09;4.60;;;1.90;;
34767;SDS011;21755;43.608;1.236;2024-03-23T06:05:36;3.70;;;1.77;;
34767;SDS011;21755;43.608;1.236;2024-03-23T06:08:02;8.00;;;2.00;;
34767;SDS011;21755;43.608;1.236;2024-03-23T06:10:29;8.77;;;2.20;;
34767;SDS011;21755;43.608;1.236;2024-03-23T06:12:54;6.65;;;1.92;;
34767;SDS011;21755;43.608;1.236;2024-03-23T06:15:21;4.40;;;2.08;;
34767;SDS011;21755;43.608;1.236;2024-03-23T06:17:47;8.32;;;2.00;;
34767;SDS011;21755;43.608;1.236;2024-03-23T06:20:14;7.72;;;2.15;;
34767;SDS011;21755;43.608;1.236;2024-03-23T06:22:40;6.57;;;2.38;;
34767;SDS011;21755;43.608;1.236;2024-03-23T06:25:06;6.30;;;2.20;;
34767;SDS011;21755;43.608;1.236;2024-03-23T06:27:32;8.48;;;2.42;;
34767;SDS011;21755;43.608;1.236;2024-03-23T06:29:58;5.45;;;2.35;;
34767;SDS011;21755;43.608;1.236;2024-03-23T06:32:25;10.23;;;2.70;;
34767;SDS011;21755;43.608;1.236;2024-03-23T06:34:51;8.55;;;2.40;;
34767;SDS011;21755;43.608;1.236;2024-03-23T06:37:17;6.15;;;2.00;;
34767;SDS011;21755;43.608;1.236;2024-03-23T06:39:42;8.18;;;1.92;;
34767;SDS011;21755;43.608;1.236;2024-03-23T06:42:11;4.72;;;2.00;;
34767;SDS011;21755;43.608;1.236;2024-03-23T06:44:36;4.22;;;1.77;;
34767;SDS011;21755;43.608;1.236;2024-03-23T06:47:02;5.32;;;2.00;;
34767;SDS011;21755;43.608;1.236;2024-03-23T06:49:28;8.27;;;2.15;;
34767;SDS011;21755;43.608;1.236;2024-03-23T06:51:54;5.93;;;2.22;;
34767;SDS011;21755;43.608;1.236;2024-03-23T06:54:20;4.68;;;1.80;;
34767;SDS011;21755;43.608;1.236;2024-03-23T06:56:46;6.30;;;1.98;;
34767;SDS011;21755;43.608;1.236;2024-03-23T06:59:12;5.78;;;1.80;;
34767;SDS011;21755;43.608;1.236;2024-03-23T07:01:38;6.57;;;1.90;;
34767;SDS011;21755;43.608;1.236;2024-03-23T07:04:04;5.00;;;2.00;;
34767;SDS011;21755;43.608;1.236;2024-03-23T07:06:30;5.53;;;1.95;;
34767;SDS011;21755;43.608;1.236;2024-03-23T07:08:56;8.68;;;2.85;;
34767;SDS011;21755;43.608;1.236;2024-03-23T07:11:22;4.28;;;1.40;;
34767;SDS011;21755;43.608;1.236;2024-03-23T07:13:49;2.92;;;1.20;;
34767;SDS011;21755;43.608;1.236;2024-03-23T07:16:16;2.83;;;1.20;;
34767;SDS011;21755;43.608;1.236;2024-03-23T07:18:42;5.78;;;1.10;;
34767;SDS011;21755;43.608;1.236;2024-03-23T07:21:08;2.83;;;0.70;;
34767;SDS011;21755;43.608;1.236;2024-03-23T07:23:34;2.10;;;0.60;;
34767;SDS011;21755;43.608;1.236;2024-03-23T07:26:04;2.80;;;0.80;;
34767;SDS011;21755;43.608;1.236;2024-03-23T07:28:32;2.72;;;0.82;;
34767;SDS011;21755;43.608;1.236;2024-03-23T07:31:05;3.67;;;0.77;;
34767;SDS011;21755;43.608;1.236;2024-03-23T07:33:34;5.70;;;0.93;;
34767;SDS011;21755;43.608;1.236;2024-03-23T07:36:01;2.45;;;0.75;;
34767;SDS011;21755;43.608;1.236;2024-03-23T07:38:27;0.93;;;0.45;;
34767;SDS011;21755;43.608;1.236;2024-03-23T07:43:49;2.30;;;0.70;;
34767;SDS011;21755;43.608;1.236;2024-03-23T07:46:15;4.47;;;0.80;;
34767;SDS011;21755;43.608;1.236;2024-03-23T07:48:42;3.30;;;0.80;;
34767;SDS011;21755;43.608;1.236;2024-03-23T07:51:14;5.90;;;1.13;;
34767;SDS011;21755;43.608;1.236;2024-03-23T07:53:44;5.15;;;0.98;;
34767;SDS011;21755;43.608;1.236;2024-03-23T07:56:11;5.00;;;0.80;;
34767;SDS011;21755;43.608;1.236;2024-03-23T07:58:40;8.02;;;0.93;;
34767;SDS011;21755;43.608;1.236;2024-03-23T08:01:07;8.38;;;1.15;;
34767;SDS011;21755;43.608;1.236;2024-03-23T08:03:38;3.20;;;0.85;;
34767;SDS011;21755;43.608;1.236;2024-03-23T08:06:09;6.00;;;1.35;;
34767;SDS011;21755;43.608;1.236;2024-03-23T08:08:40;5.70;;;2.08;;
34767;SDS011;21755;43.608;1.236;2024-03-23T08:11:06;5.05;;;1.15;;
34767;SDS011;21755;43.608;1.236;2024-03-23T08:13:33;6.88;;;1.75;;
34767;SDS011;21755;43.608;1.236;2024-03-23T08:16:00;8.75;;;1.73;;
34767;SDS011;21755;43.608;1.236;2024-03-23T08:18:27;7.80;;;1.40;;
34767;SDS011;21755;43.608;1.236;2024-03-23T08:23:22;5.38;;;1.92;;
34767;SDS011;21755;43.608;1.236;2024-03-23T08:25:59;8.88;;;2.13;;
34767;SDS011;21755;43.608;1.236;2024-03-23T08:28:32;13.13;;;2.08;;
34767;SDS011;21755;43.608;1.236;2024-03-23T08:31:02;8.95;;;1.73;;
34767;SDS011;21755;43.608;1.236;2024-03-23T08:33:36;11.68;;;1.70;;
34767;SDS011;21755;43.608;1.236;2024-03-23T08:36:04;9.80;;;1.98;;
34767;SDS011;21755;43.608;1.236;2024-03-23T08:38:31;8.50;;;1.50;;
34767;SDS011;21755;43.608;1.236;2024-03-23T08:41:02;10.05;;;1.63;;
34767;SDS011;21755;43.608;1.236;2024-03-23T08:43:29;12.35;;;2.25;;
34767;SDS011;21755;43.608;1.236;2024-03-23T08:46:03;7.47;;;2.22;;
34767;SDS011;21755;43.608;1.236;2024-03-23T08:48:44;9.82;;;1.60;;
34767;SDS011;21755;43.608;1.236;2024-03-23T08:51:11;8.52;;;1.95;;
34767;SDS011;21755;43.608;1.236;2024-03-23T08:53:39;10.23;;;1.90;;
34767;SDS011;21755;43.608;1.236;2024-03-23T08:56:06;9.00;;;1.90;;
34767;SDS011;21755;43.608;1.236;2024-03-23T08:58:33;16.30;;;2.47;;
34767;SDS011;21755;43.608;1.236;2024-03-23T09:01:03;9.30;;;1.52;;
34767;SDS011;21755;43.608;1.236;2024-03-23T09:03:36;11.95;;;2.40;;
34767;SDS011;21755;43.608;1.236;2024-03-23T09:06:02;10.57;;;1.98;;
34767;SDS011;21755;43.608;1.236;2024-03-23T09:08:39;11.90;;;2.20;;
34767;SDS011;21755;43.608;1.236;2024-03-23T09:11:09;13.23;;;2.50;;
34767;SDS011;21755;43.608;1.236;2024-03-23T09:13:37;10.07;;;1.73;;
34767;SDS011;21755;43.608;1.236;2024-03-23T09:16:03;9.57;;;2.28;;
34767;SDS011;21755;43.608;1.236;2024-03-23T09:18:34;9.27;;;2.47;;
34767;SDS011;21755;43.608;1.236;2024-03-23T09:21:01;11.27;;;2.25;;
34767;SDS011;21755;43.608;1.236;2024-03-23T09:23:38;10.88;;;2.47;;
34767;SDS011;21755;43.608;1.236;2024-03-23T09:26:04;12.25;;;2.20;;
34767;SDS011;21755;43.608;1.236;2024-03-23T09:28:32;15.10;;;2.13;;
34767;SDS011;21755;43.608;1.236;2024-03-23T09:31:04;13.45;;;1.80;;
34767;SDS011;21755;43.608;1.236;2024-03-23T09:33:34;11.63;;;2.38;;
34767;SDS011;21755;43.608;1.236;2024-03-23T09:36:04;6.75;;;1.80;;
34767;SDS011;21755;43.608;1.236;2024-03-23T09:38:31;10.70;;;3.00;;
34767;SDS011;21755;43.608;1.236;2024-03-23T09:40:57;11.43;;;2.22;;
34767;SDS011;21755;43.608;1.236;2024-03-23T09:43:24;11.85;;;2.60;;
34767;SDS011;21755;43.608;1.236;2024-03-23T09:45:50;17.92;;;3.10;;
34767;SDS011;21755;43.608;1.236;2024-03-23T09:48:16;13.27;;;2.33;;
34767;SDS011;21755;43.608;1.236;2024-03-23T09:50:43;11.35;;;2.05;;
34767;SDS011;21755;43.608;1.236;2024-03-23T09:53:11;10.15;;;1.88;;
34767;SDS011;21755;43.608;1.236;2024-03-23T09:55:39;10.05;;;1.58;;
34767;SDS011;21755;43.608;1.236;2024-03-23T09:58:12;6.15;;;1.05;;
34767;SDS011;21755;43.608;1.236;2024-03-23T10:00:39;9.10;;;1.70;;
34767;SDS011;21755;43.608;1.236;2024-03-23T10:03:05;10.75;;;1.80;;
34767;SDS011;21755;43.608;1.236;2024-03-23T10:05:31;7.38;;;1.50;;
34767;SDS011;21755;43.608;1.236;2024-03-23T10:10:39;12.77;;;1.80;;
34767;SDS011;21755;43.608;1.236;2024-03-23T10:13:08;7.55;;;1.63;;
34767;SDS011;21755;43.608;1.236;2024-03-23T10:15:34;6.00;;;1.50;;
34767;SDS011;21755;43.608;1.236;2024-03-23T10:18:19;7.38;;;1.42;;
34767;SDS011;21755;43.608;1.236;2024-03-23T10:23:45;12.07;;;1.92;;
34767;SDS011;21755;43.608;1.236;2024-03-23T10:26:21;12.18;;;1.70;;
34767;SDS011;21755;43.608;1.236;2024-03-23T10:34:00;14.48;;;1.90;;
34767;SDS011;21755;43.608;1.236;2024-03-23T10:41:29;8.90;;;0.88;;
34767;SDS011;21755;43.608;1.236;2024-03-23T10:43:58;7.30;;;1.25;;
34767;SDS011;21755;43.608;1.236;2024-03-23T10:46:26;6.75;;;1.33;;
34767;SDS011;21755;43.608;1.236;2024-03-23T10:48:52;7.90;;;1.27;;
34767;SDS011;21755;43.608;1.236;2024-03-23T10:51:18;4.88;;;0.98;;
34767;SDS011;21755;43.608;1.236;2024-03-23T10:53:44;7.32;;;1.85;;
34767;SDS011;21755;43.608;1.236;2024-03-23T10:56:11;5.32;;;1.33;;
34767;SDS011;21755;43.608;1.236;2024-03-23T10:58:40;8.18;;;1.20;;
34767;SDS011;21755;43.608;1.236;2024-03-23T11:01:11;9.25;;;1.45;;
34767;SDS011;21755;43.608;1.236;2024-03-23T11:06:10;4.25;;;0.82;;
34767;SDS011;21755;43.608;1.236;2024-03-23T11:08:56;8.88;;;1.58;;
34767;SDS011;21755;43.608;1.236;2024-03-23T11:11:22;5.90;;;1.25;;
34767;SDS011;21755;43.608;1.236;2024-03-23T11:13:50;7.13;;;1.17;;
34767;SDS011;21755;43.608;1.236;2024-03-23T11:16:21;6.60;;;1.45;;
34767;SDS011;21755;43.608;1.236;2024-03-23T11:21:59;5.25;;;1.10;;
34767;SDS011;21755;43.608;1.236;2024-03-23T11:24:25;9.18;;;1.30;;
34767;SDS011;21755;43.608;1.236;2024-03-23T11:26:51;7.10;;;1.20;;
34767;SDS011;21755;43.608;1.236;2024-03-23T11:29:17;4.57;;;0.98;;
34767;SDS011;21755;43.608;1.236;2024-03-23T11:31:50;4.28;;;1.27;;
34767;SDS011;21755;43.608;1.236;2024-03-23T11:34:17;4.35;;;1.05;;
34767;SDS011;21755;43.608;1.236;2024-03-23T11:36:44;8.75;;;1.55;;
34767;SDS011;21755;43.608;1.236;2024-03-23T11:39:17;6.43;;;1.08;;
34767;SDS011;21755;43.608;1.236;2024-03-23T11:41:47;6.00;;;1.05;;
34767;SDS011;21755;43.608;1.236;2024-03-23T11:46:45;5.63;;;1.23;;
34767;SDS011;21755;43.608;1.236;2024-03-23T11:49:27;7.95;;;1.05;;
34767;SDS011;21755;43.608;1.236;2024-03-23T11:51:55;4.70;;;1.08;;
34767;SDS011;21755;43.608;1.236;2024-03-23T11:54:24;3.95;;;0.90;;
34767;SDS011;21755;43.608;1.236;2024-03-23T11:56:57;7.57;;;1.27;;
34767;SDS011;21755;43.608;1.236;2024-03-23T11:59:39;2.78;;;0.80;;
34767;SDS011;21755;43.608;1.236;2024-03-23T12:02:12;8.10;;;1.27;;
34767;SDS011;21755;43.608;1.236;2024-03-23T12:04:41;5.60;;;0.88;;
34767;SDS011;21755;43.608;1.236;2024-03-23T12:12:16;5.68;;;1.60;;
34767;SDS011;21755;43.608;1.236;2024-03-23T12:14:43;4.38;;;0.93;;
34767;SDS011;21755;43.608;1.236;2024-03-23T12:17:09;3.65;;;0.70;;
34767;SDS011;21755;43.608;1.236;2024-03-23T12:19:39;3.50;;;0.88;;
34767;SDS011;21755;43.608;1.236;2024-03-23T12:22:10;5.57;;;1.67;;
34767;SDS011;21755;43.608;1.236;2024-03-23T12:24:36;5.85;;;1.52;;
34767;SDS011;21755;43.608;1.236;2024-03-23T12:27:04;15.10;;;4.28;;
34767;SDS011;21755;43.608;1.236;2024-03-23T12:29:33;11.00;;;3.42;;
34767;SDS011;21755;43.608;1.236;2024-03-23T12:32:00;6.13;;;1.27;;
34767;SDS011;21755;43.608;1.236;2024-03-23T12:34:27;6.13;;;1.00;;
34767;SDS011;21755;43.608;1.236;2024-03-23T12:36:54;9.13;;;2.15;;
34767;SDS011;21755;43.608;1.236;2024-03-23T12:39:20;3.25;;;1.13;;
34767;SDS011;21755;43.608;1.236;2024-03-23T12:41:46;7.45;;;1.70;;
34767;SDS011;21755;43.608;1.236;2024-03-23T12:44:13;4.50;;;1.58;;
34767;SDS011;21755;43.608;1.236;2024-03-23T12:46:40;3.08;;;1.00;;
34767;SDS011;21755;43.608;1.236;2024-03-23T12:49:06;5.20;;;1.17;;
34767;SDS011;21755;43.608;1.236;2024-03-23T12:51:33;4.95;;;1.55;;
34767;SDS011;21755;43.608;1.236;2024-03-23T12:53:59;6.10;;;1.00;;
34767;SDS011;21755;43.608;1.236;2024-03-23T12:56:25;6.53;;;1.35;;
34767;SDS011;21755;43.608;1.236;2024-03-23T12:58:53;6.65;;;1.08;;
34767;SDS011;21755;43.608;1.236;2024-03-23T13:01:25;10.10;;;3.00;;
34767;SDS011;21755;43.608;1.236;2024-03-23T13:03:51;7.57;;;0.95;;
34767;SDS011;21755;43.608;1.236;2024-03-23T13:06:18;11.02;;;2.13;;
34767;SDS011;21755;43.608;1.236;2024-03-23T13:08:44;8.52;;;1.40;;
34767;SDS011;21755;43.608;1.236;2024-03-23T13:11:11;6.00;;;1.25;;
34767;SDS011;21755;43.608;1.236;2024-03-23T13:13:38;7.45;;;1.75;;
34767;SDS011;21755;43.608;1.236;2024-03-23T13:16:04;7.15;;;1.70;;
34767;SDS011;21755;43.608;1.236;2024-03-23T13:18:31;6.05;;;1.35;;
34767;SDS011;21755;43.608;1.236;2024-03-23T13:20:57;7.03;;;1.70;;
34767;SDS011;21755;43.608;1.236;2024-03-23T13:23:24;5.40;;;1.08;;
34767;SDS011;21755;43.608;1.236;2024-03-23T13:25:50;10.60;;;1.80;;
34767;SDS011;21755;43.608;1.236;2024-03-23T13:28:18;5.70;;;1.30;;
34767;SDS011;21755;43.608;1.236;2024-03-23T13:30:51;10.25;;;1.33;;
34767;SDS011;21755;43.608;1.236;2024-03-23T13:33:18;8.23;;;1.30;;
34767;SDS011;21755;43.608;1.236;2024-03-23T13:38:16;6.22;;;1.05;;
34767;SDS011;21755;43.608;1.236;2024-03-23T13:43:19;8.20;;;1.27;;
34767;SDS011;21755;43.608;1.236;2024-03-23T13:45:49;9.15;;;1.67;;
34767;SDS011;21755;43.608;1.236;2024-03-23T13:48:19;5.68;;;1.48;;
34767;SDS011;21755;43.608;1.236;2024-03-23T13:50:46;5.13;;;1.35;;
34767;SDS011;21755;43.608;1.236;2024-03-23T13:53:15;8.00;;;1.20;;
34767;SDS011;21755;43.608;1.236;2024-03-23T13:55:47;7.40;;;1.23;;
34767;SDS011;21755;43.608;1.236;2024-03-23T13:58:16;6.90;;;1.02;;
34767;SDS011;21755;43.608;1.236;2024-03-23T14:00:42;8.80;;;1.75;;
34767;SDS011;21755;43.608;1.236;2024-03-23T14:03:08;9.23;;;1.75;;
34767;SDS011;21755;43.608;1.236;2024-03-23T14:05:35;9.48;;;1.23;;
34767;SDS011;21755;43.608;1.236;2024-03-23T14:08:01;7.72;;;1.40;;
34767;SDS011;21755;43.608;1.236;2024-03-23T14:10:27;4.65;;;1.38;;
34767;SDS011;21755;43.608;1.236;2024-03-23T14:12:53;7.35;;;1.30;;
34767;SDS011;21755;43.608;1.236;2024-03-23T14:15:19;8.32;;;1.70;;
34767;SDS011;21755;43.608;1.236;2024-03-23T14:17:45;4.28;;;1.33;;
34767;SDS011;21755;43.608;1.236;2024-03-23T14:20:11;7.30;;;1.33;;
34767;SDS011;21755;43.608;1.236;2024-03-23T14:22:38;5.88;;;1.30;;
34767;SDS011;21755;43.608;1.236;2024-03-23T14:25:06;9.07;;;1.80;;
34767;SDS011;21755;43.608;1.236;2024-03-23T14:27:32;7.40;;;1.77;;
34767;SDS011;21755;43.608;1.236;2024-03-23T14:30:02;4.85;;;1.17;;
34767;SDS011;21755;43.608;1.236;2024-03-23T14:32:33;5.50;;;1.10;;
34767;SDS011;21755;43.608;1.236;2024-03-23T14:35:00;9.75;;;1.40;;
34767;SDS011;21755;43.608;1.236;2024-03-23T14:37:26;4.55;;;1.27;;
34767;SDS011;21755;43.608;1.236;2024-03-23T14:39:54;12.38;;;1.55;;
34767;SDS011;21755;43.608;1.236;2024-03-23T14:42:21;10.55;;;1.98;;
34767;SDS011;21755;43.608;1.236;2024-03-23T14:44:48;7.63;;;1.83;;
34767;SDS011;21755;43.608;1.236;2024-03-23T14:47:15;6.63;;;1.45;;
34767;SDS011;21755;43.608;1.236;2024-03-23T14:49:42;6.35;;;1.40;;
34767;SDS011;21755;43.608;1.236;2024-03-23T14:52:18;11.48;;;2.28;;
34767;SDS011;21755;43.608;1.236;2024-03-23T14:54:44;5.32;;;1.00;;
34767;SDS011;21755;43.608;1.236;2024-03-23T14:57:11;5.63;;;1.40;;
34767;SDS011;21755;43.608;1.236;2024-03-23T14:59:37;2.90;;;0.80;;
34767;SDS011;21755;43.608;1.236;2024-03-23T15:02:03;4.10;;;1.08;;
34767;SDS011;21755;43.608;1.236;2024-03-23T15:04:30;7.32;;;1.23;;
34767;SDS011;21755;43.608;1.236;2024-03-23T15:06:55;7.88;;;1.85;;
34767;SDS011;21755;43.608;1.236;2024-03-23T15:09:21;3.30;;;1.00;;
34767;SDS011;21755;43.608;1.236;2024-03-23T15:11:47;5.43;;;1.23;;
34767;SDS011;21755;43.608;1.236;2024-03-23T15:14:13;5.85;;;1.50;;
34767;SDS011;21755;43.608;1.236;2024-03-23T15:16:39;6.68;;;1.38;;
34767;SDS011;21755;43.608;1.236;2024-03-23T15:19:07;5.80;;;1.00;;
34767;SDS011;21755;43.608;1.236;2024-03-23T15:21:33;6.95;;;1.23;;
34767;SDS011;21755;43.608;1.236;2024-03-23T15:23:59;5.60;;;1.52;;
34767;SDS011;21755;43.608;1.236;2024-03-23T15:26:25;9.70;;;2.03;;
34767;SDS011;21755;43.608;1.236;2024-03-23T15:28:51;8.25;;;1.42;;
34767;SDS011;21755;43.608;1.236;2024-03-23T15:31:23;6.32;;;1.30;;
34767;SDS011;21755;43.608;1.236;2024-03-23T15:33:49;8.77;;;1.35;;
34767;SDS011;21755;43.608;1.236;2024-03-23T15:36:15;9.40;;;1.30;;
34767;SDS011;21755;43.608;1.236;2024-03-23T15:38:42;5.30;;;1.00;;
34767;SDS011;21755;43.608;1.236;2024-03-23T15:41:08;7.75;;;1.35;;
34767;SDS011;21755;43.608;1.236;2024-03-23T15:43:35;3.50;;;1.15;;
34767;SDS011;21755;43.608;1.236;2024-03-23T15:46:02;4.47;;;1.17;;
34767;SDS011;21755;43.608;1.236;2024-03-23T15:48:29;6.50;;;1.70;;
34767;SDS011;21755;43.608;1.236;2024-03-23T15:51:01;10.27;;;1.88;;
34767;SDS011;21755;43.608;1.236;2024-03-23T15:53:29;6.88;;;1.58;;
34767;SDS011;21755;43.608;1.236;2024-03-23T15:55:56;5.95;;;1.27;;
34767;SDS011;21755;43.608;1.236;2024-03-23T15:58:23;6.47;;;1.17;;
34767;SDS011;21755;43.608;1.236;2024-03-23T16:00:56;4.47;;;1.20;;
34767;SDS011;21755;43.608;1.236;2024-03-23T16:03:29;22.15;;;8.25;;
34767;SDS011;21755;43.608;1.236;2024-03-23T16:05:57;24.52;;;8.02;;
34767;SDS011;21755;43.608;1.236;2024-03-23T16:08:28;7.80;;;1.60;;
34767;SDS011;21755;43.608;1.236;2024-03-23T16:10:59;6.78;;;1.00;;
34767;SDS011;21755;43.608;1.236;2024-03-23T16:13:25;8.93;;;1.50;;
34767;SDS011;21755;43.608;1.236;2024-03-23T16:16:00;6.15;;;1.35;;
34767;SDS011;21755;43.608;1.236;2024-03-23T16:18:34;4.15;;;0.82;;
34767;SDS011;21755;43.608;1.236;2024-03-23T16:21:02;6.70;;;1.65;;